sensor_id;sensor_type;location;lat;lon;timestamp;P1;durP1;ratioP1;P2;durP2;ratioP2
32152;SDS011;18656;50.580;11.392;2022-09-09T00:00:11;5.32;;;2.17;;
32152;SDS011;18656;50.580;11.392;2022-09-09T00:02:39;3.00;;;1.85;;
32152;SDS011;18656;50.580;11.392;2022-09-09T00:05:31;5.35;;;2.40;;
32152;SDS011;18656;50.580;11.392;2022-09-09T00:08:02;6.90;;;2.65;;
32152;SDS011;18656;50.580;11.392;2022-09-09T00:10:34;3.67;;;2.15;;
32152;SDS011;18656;50.580;11.392;2022-09-09T00:15:41;2.95;;;2.30;;
32152;SDS011;18656;50.580;11.392;2022-09-09T00:18:13;3.40;;;2.00;;
32152;SDS011;18656;50.580;11.392;2022-09-09T00:20:55;3.42;;;2.03;;
32152;SDS011;18656;50.580;11.392;2022-09-09T00:23:28;2.72;;;2.25;;
32152;SDS011;18656;50.580;11.392;2022-09-09T00:25:58;3.50;;;2.00;;
32152;SDS011;18656;50.580;11.392;2022-09-09T00:28:28;4.97;;;2.17;;
32152;SDS011;18656;50.580;11.392;2022-09-09T00:31:08;4.13;;;2.25;;
32152;SDS011;18656;50.580;11.392;2022-09-09T00:33:38;6.90;;;2.17;;
32152;SDS011;18656;50.580;11.392;2022-09-09T00:36:09;4.30;;;2.10;;
32152;SDS011;18656;50.580;11.392;2022-09-09T00:38:40;2.22;;;1.98;;
32152;SDS011;18656;50.580;11.392;2022-09-09T00:41:21;2.72;;;1.85;;
32152;SDS011;18656;50.580;11.392;2022-09-09T00:43:56;4.43;;;2.42;;
32152;SDS011;18656;50.580;11.392;2022-09-09T00:46:32;3.25;;;2.15;;
32152;SDS011;18656;50.580;11.392;2022-09-09T00:59:28;3.00;;;2.00;;
32152;SDS011;18656;50.580;11.392;2022-09-09T01:02:07;4.22;;;2.28;;
32152;SDS011;18656;50.580;11.392;2022-09-09T01:04:37;2.20;;;1.98;;
32152;SDS011;18656;50.580;11.392;2022-09-09T01:07:17;4.70;;;1.83;;
32152;SDS011;18656;50.580;11.392;2022-09-09T01:09:50;3.53;;;2.22;;
32152;SDS011;18656;50.580;11.392;2022-09-09T01:12:24;1.83;;;1.67;;
32152;SDS011;18656;50.580;11.392;2022-09-09T01:15:02;2.17;;;1.98;;
32152;SDS011;18656;50.580;11.392;2022-09-09T01:17:31;3.67;;;1.90;;
32152;SDS011;18656;50.580;11.392;2022-09-09T01:20:02;3.20;;;2.13;;
32152;SDS011;18656;50.580;11.392;2022-09-09T01:22:40;2.67;;;1.70;;
32152;SDS011;18656;50.580;11.392;2022-09-09T01:27:44;19.30;;;2.53;;
32152;SDS011;18656;50.580;11.392;2022-09-09T01:30:14;2.42;;;2.10;;
32152;SDS011;18656;50.580;11.392;2022-09-09T01:32:46;3.13;;;2.08;;
32152;SDS011;18656;50.580;11.392;2022-09-09T01:37:59;2.13;;;1.98;;
32152;SDS011;18656;50.580;11.392;2022-09-09T01:40:27;2.42;;;1.88;;
32152;SDS011;18656;50.580;11.392;2022-09-09T01:42:54;5.20;;;2.38;;
32152;SDS011;18656;50.580;11.392;2022-09-09T01:45:21;2.58;;;2.10;;
32152;SDS011;18656;50.580;11.392;2022-09-09T01:47:49;3.33;;;2.13;;
32152;SDS011;18656;50.580;11.392;2022-09-09T01:50:16;3.13;;;2.17;;
32152;SDS011;18656;50.580;11.392;2022-09-09T01:52:44;8.02;;;2.33;;
32152;SDS011;18656;50.580;11.392;2022-09-09T01:55:13;2.35;;;2.15;;
32152;SDS011;18656;50.580;11.392;2022-09-09T02:00:11;5.32;;;1.98;;
32152;SDS011;18656;50.580;11.392;2022-09-09T02:07:49;4.53;;;2.67;;
32152;SDS011;18656;50.580;11.392;2022-09-09T02:10:19;4.85;;;2.20;;
32152;SDS011;18656;50.580;11.392;2022-09-09T02:12:48;4.25;;;2.50;;
32152;SDS011;18656;50.580;11.392;2022-09-09T02:15:17;5.55;;;2.50;;
32152;SDS011;18656;50.580;11.392;2022-09-09T02:17:49;4.45;;;2.90;;
32152;SDS011;18656;50.580;11.392;2022-09-09T02:20:19;4.35;;;2.30;;
32152;SDS011;18656;50.580;11.392;2022-09-09T02:22:47;7.28;;;2.53;;
32152;SDS011;18656;50.580;11.392;2022-09-09T02:25:17;3.50;;;2.10;;
32152;SDS011;18656;50.580;11.392;2022-09-09T02:27:45;4.63;;;2.53;;
32152;SDS011;18656;50.580;11.392;2022-09-09T02:30:13;2.60;;;2.22;;
32152;SDS011;18656;50.580;11.392;2022-09-09T02:32:41;2.17;;;1.90;;
32152;SDS011;18656;50.580;11.392;2022-09-09T02:35:12;3.40;;;2.25;;
32152;SDS011;18656;50.580;11.392;2022-09-09T02:37:41;5.55;;;2.75;;
32152;SDS011;18656;50.580;11.392;2022-09-09T02:40:10;5.97;;;1.92;;
32152;SDS011;18656;50.580;11.392;2022-09-09T02:42:42;4.57;;;2.88;;
32152;SDS011;18656;50.580;11.392;2022-09-09T02:45:10;4.53;;;2.08;;
32152;SDS011;18656;50.580;11.392;2022-09-09T02:47:44;3.22;;;2.03;;
32152;SDS011;18656;50.580;11.392;2022-09-09T02:50:16;3.60;;;2.53;;
32152;SDS011;18656;50.580;11.392;2022-09-09T02:55:20;3.67;;;2.42;;
32152;SDS011;18656;50.580;11.392;2022-09-09T02:57:50;6.82;;;2.97;;
32152;SDS011;18656;50.580;11.392;2022-09-09T03:00:22;4.55;;;2.60;;
32152;SDS011;18656;50.580;11.392;2022-09-09T03:02:50;3.38;;;2.05;;
32152;SDS011;18656;50.580;11.392;2022-09-09T03:05:17;3.42;;;2.03;;
32152;SDS011;18656;50.580;11.392;2022-09-09T03:07:45;4.25;;;2.53;;
32152;SDS011;18656;50.580;11.392;2022-09-09T03:10:12;6.03;;;2.53;;
32152;SDS011;18656;50.580;11.392;2022-09-09T03:12:39;3.47;;;2.50;;
32152;SDS011;18656;50.580;11.392;2022-09-09T03:15:07;4.18;;;2.25;;
32152;SDS011;18656;50.580;11.392;2022-09-09T03:17:34;2.50;;;2.08;;
32152;SDS011;18656;50.580;11.392;2022-09-09T03:20:02;3.22;;;2.28;;
32152;SDS011;18656;50.580;11.392;2022-09-09T03:22:29;3.60;;;2.20;;
32152;SDS011;18656;50.580;11.392;2022-09-09T03:24:57;3.67;;;2.15;;
32152;SDS011;18656;50.580;11.392;2022-09-09T03:27:24;6.40;;;2.33;;
32152;SDS011;18656;50.580;11.392;2022-09-09T03:29:51;4.25;;;2.20;;
32152;SDS011;18656;50.580;11.392;2022-09-09T03:32:18;1.88;;;1.77;;
32152;SDS011;18656;50.580;11.392;2022-09-09T03:34:48;3.17;;;2.40;;
32152;SDS011;18656;50.580;11.392;2022-09-09T03:37:16;2.47;;;2.28;;
32152;SDS011;18656;50.580;11.392;2022-09-09T03:39:43;2.13;;;1.77;;
32152;SDS011;18656;50.580;11.392;2022-09-09T03:42:14;7.82;;;2.67;;
32152;SDS011;18656;50.580;11.392;2022-09-09T03:44:45;4.82;;;1.98;;
32152;SDS011;18656;50.580;11.392;2022-09-09T03:47:17;3.03;;;1.90;;
32152;SDS011;18656;50.580;11.392;2022-09-09T03:49:44;2.40;;;2.20;;
32152;SDS011;18656;50.580;11.392;2022-09-09T03:52:12;4.55;;;2.33;;
32152;SDS011;18656;50.580;11.392;2022-09-09T03:54:39;3.30;;;2.20;;
32152;SDS011;18656;50.580;11.392;2022-09-09T03:57:09;2.58;;;2.00;;
32152;SDS011;18656;50.580;11.392;2022-09-09T03:59:36;2.45;;;1.95;;
32152;SDS011;18656;50.580;11.392;2022-09-09T04:02:04;7.18;;;1.95;;
32152;SDS011;18656;50.580;11.392;2022-09-09T04:04:31;2.85;;;1.90;;
32152;SDS011;18656;50.580;11.392;2022-09-09T04:06:59;4.65;;;2.20;;
32152;SDS011;18656;50.580;11.392;2022-09-09T04:09:26;2.83;;;1.83;;
32152;SDS011;18656;50.580;11.392;2022-09-09T04:11:53;4.93;;;1.77;;
32152;SDS011;18656;50.580;11.392;2022-09-09T04:14:21;4.30;;;2.05;;
32152;SDS011;18656;50.580;11.392;2022-09-09T04:16:48;2.55;;;1.67;;
32152;SDS011;18656;50.580;11.392;2022-09-09T04:19:15;3.95;;;2.10;;
32152;SDS011;18656;50.580;11.392;2022-09-09T04:21:43;4.10;;;2.40;;
32152;SDS011;18656;50.580;11.392;2022-09-09T04:24:10;4.43;;;2.50;;
32152;SDS011;18656;50.580;11.392;2022-09-09T04:26:37;3.10;;;2.10;;
32152;SDS011;18656;50.580;11.392;2022-09-09T04:29:05;5.10;;;2.83;;
32152;SDS011;18656;50.580;11.392;2022-09-09T04:31:33;2.88;;;2.42;;
32152;SDS011;18656;50.580;11.392;2022-09-09T04:34:01;6.70;;;2.10;;
32152;SDS011;18656;50.580;11.392;2022-09-09T04:36:31;6.63;;;2.50;;
32152;SDS011;18656;50.580;11.392;2022-09-09T04:38:58;5.00;;;2.50;;
32152;SDS011;18656;50.580;11.392;2022-09-09T04:41:26;12.32;;;3.08;;
32152;SDS011;18656;50.580;11.392;2022-09-09T04:43:53;21.85;;;3.35;;
32152;SDS011;18656;50.580;11.392;2022-09-09T04:46:20;6.50;;;2.35;;
32152;SDS011;18656;50.580;11.392;2022-09-09T04:48:49;4.43;;;2.30;;
32152;SDS011;18656;50.580;11.392;2022-09-09T04:51:17;4.15;;;2.25;;
32152;SDS011;18656;50.580;11.392;2022-09-09T04:53:44;2.38;;;2.28;;
32152;SDS011;18656;50.580;11.392;2022-09-09T04:56:14;16.15;;;3.50;;
32152;SDS011;18656;50.580;11.392;2022-09-09T04:58:42;11.95;;;2.58;;
32152;SDS011;18656;50.580;11.392;2022-09-09T05:01:13;4.47;;;2.67;;
32152;SDS011;18656;50.580;11.392;2022-09-09T05:03:41;4.68;;;3.13;;
32152;SDS011;18656;50.580;11.392;2022-09-09T05:06:09;3.05;;;2.22;;
32152;SDS011;18656;50.580;11.392;2022-09-09T05:08:37;3.75;;;2.22;;
32152;SDS011;18656;50.580;11.392;2022-09-09T05:11:14;5.78;;;2.28;;
32152;SDS011;18656;50.580;11.392;2022-09-09T05:13:42;6.65;;;2.58;;
32152;SDS011;18656;50.580;11.392;2022-09-09T05:16:10;12.82;;;3.08;;
32152;SDS011;18656;50.580;11.392;2022-09-09T05:18:38;12.27;;;3.60;;
32152;SDS011;18656;50.580;11.392;2022-09-09T05:21:05;6.40;;;3.08;;
32152;SDS011;18656;50.580;11.392;2022-09-09T05:23:33;13.48;;;3.10;;
32152;SDS011;18656;50.580;11.392;2022-09-09T05:26:00;6.88;;;2.80;;
32152;SDS011;18656;50.580;11.392;2022-09-09T05:28:28;5.40;;;2.60;;
32152;SDS011;18656;50.580;11.392;2022-09-09T05:31:05;4.28;;;2.83;;
32152;SDS011;18656;50.580;11.392;2022-09-09T05:33:35;5.25;;;3.08;;
32152;SDS011;18656;50.580;11.392;2022-09-09T05:36:03;6.15;;;3.47;;
32152;SDS011;18656;50.580;11.392;2022-09-09T05:38:31;5.18;;;3.58;;
32152;SDS011;18656;50.580;11.392;2022-09-09T05:40:59;10.95;;;3.10;;
32152;SDS011;18656;50.580;11.392;2022-09-09T05:43:26;7.22;;;3.13;;
32152;SDS011;18656;50.580;11.392;2022-09-09T05:46:05;9.23;;;3.20;;
32152;SDS011;18656;50.580;11.392;2022-09-09T05:48:34;5.45;;;2.97;;
32152;SDS011;18656;50.580;11.392;2022-09-09T05:51:02;6.25;;;3.20;;
32152;SDS011;18656;50.580;11.392;2022-09-09T05:53:30;2.95;;;2.45;;
32152;SDS011;18656;50.580;11.392;2022-09-09T05:58:30;15.63;;;4.30;;
32152;SDS011;18656;50.580;11.392;2022-09-09T06:01:01;15.02;;;4.55;;
32152;SDS011;18656;50.580;11.392;2022-09-09T06:03:28;18.95;;;4.80;;
32152;SDS011;18656;50.580;11.392;2022-09-09T06:06:02;8.20;;;3.67;;
32152;SDS011;18656;50.580;11.392;2022-09-09T06:08:34;6.50;;;3.92;;
32152;SDS011;18656;50.580;11.392;2022-09-09T06:11:07;9.07;;;3.75;;
32152;SDS011;18656;50.580;11.392;2022-09-09T06:13:35;4.07;;;2.70;;
32152;SDS011;18656;50.580;11.392;2022-09-09T06:16:05;8.02;;;2.85;;
32152;SDS011;18656;50.580;11.392;2022-09-09T06:18:33;7.43;;;2.42;;
32152;SDS011;18656;50.580;11.392;2022-09-09T06:21:02;6.55;;;2.25;;
32152;SDS011;18656;50.580;11.392;2022-09-09T06:23:33;10.15;;;2.85;;
32152;SDS011;18656;50.580;11.392;2022-09-09T06:26:09;11.73;;;3.15;;
32152;SDS011;18656;50.580;11.392;2022-09-09T06:28:39;20.25;;;3.80;;
32152;SDS011;18656;50.580;11.392;2022-09-09T06:31:07;18.90;;;4.10;;
32152;SDS011;18656;50.580;11.392;2022-09-09T06:33:37;10.18;;;2.20;;
32152;SDS011;18656;50.580;11.392;2022-09-09T06:36:11;4.20;;;2.08;;
32152;SDS011;18656;50.580;11.392;2022-09-09T06:38:40;1.70;;;1.60;;
32152;SDS011;18656;50.580;11.392;2022-09-09T06:41:08;3.22;;;1.52;;
32152;SDS011;18656;50.580;11.392;2022-09-09T06:43:36;1.65;;;1.52;;
32152;SDS011;18656;50.580;11.392;2022-09-09T06:46:04;43.78;;;7.18;;
32152;SDS011;18656;50.580;11.392;2022-09-09T06:48:32;45.75;;;6.40;;
32152;SDS011;18656;50.580;11.392;2022-09-09T06:51:06;25.13;;;4.90;;
32152;SDS011;18656;50.580;11.392;2022-09-09T06:53:34;27.30;;;4.07;;
32152;SDS011;18656;50.580;11.392;2022-09-09T06:56:23;21.27;;;3.40;;
32152;SDS011;18656;50.580;11.392;2022-09-09T06:58:52;19.48;;;3.22;;
32152;SDS011;18656;50.580;11.392;2022-09-09T07:01:21;8.45;;;2.65;;
32152;SDS011;18656;50.580;11.392;2022-09-09T07:03:50;10.85;;;2.47;;
32152;SDS011;18656;50.580;11.392;2022-09-09T07:06:19;9.43;;;2.03;;
32152;SDS011;18656;50.580;11.392;2022-09-09T07:08:54;3.60;;;1.00;;
32152;SDS011;18656;50.580;11.392;2022-09-09T07:11:28;2.35;;;1.05;;
32152;SDS011;18656;50.580;11.392;2022-09-09T07:13:58;4.45;;;1.08;;
32152;SDS011;18656;50.580;11.392;2022-09-09T07:16:26;3.28;;;1.13;;
32152;SDS011;18656;50.580;11.392;2022-09-09T07:18:53;1.92;;;1.08;;
32152;SDS011;18656;50.580;11.392;2022-09-09T07:21:24;2.85;;;1.38;;
32152;SDS011;18656;50.580;11.392;2022-09-09T07:23:55;3.35;;;1.45;;
32152;SDS011;18656;50.580;11.392;2022-09-09T07:26:24;3.47;;;0.90;;
32152;SDS011;18656;50.580;11.392;2022-09-09T07:28:51;1.02;;;0.73;;
32152;SDS011;18656;50.580;11.392;2022-09-09T07:31:21;2.03;;;0.93;;
32152;SDS011;18656;50.580;11.392;2022-09-09T07:33:50;1.30;;;0.98;;
32152;SDS011;18656;50.580;11.392;2022-09-09T07:36:18;1.00;;;0.90;;
32152;SDS011;18656;50.580;11.392;2022-09-09T07:38:49;1.20;;;0.90;;
32152;SDS011;18656;50.580;11.392;2022-09-09T07:41:18;5.65;;;3.92;;
32152;SDS011;18656;50.580;11.392;2022-09-09T07:43:46;7.38;;;5.88;;
32152;SDS011;18656;50.580;11.392;2022-09-09T07:46:14;2.88;;;1.50;;
32152;SDS011;18656;50.580;11.392;2022-09-09T07:48:45;5.15;;;1.10;;
32152;SDS011;18656;50.580;11.392;2022-09-09T07:51:14;5.13;;;1.20;;
32152;SDS011;18656;50.580;11.392;2022-09-09T07:53:46;3.22;;;0.77;;
32152;SDS011;18656;50.580;11.392;2022-09-09T07:56:14;4.47;;;0.90;;
32152;SDS011;18656;50.580;11.392;2022-09-09T07:58:44;2.97;;;1.05;;
32152;SDS011;18656;50.580;11.392;2022-09-09T08:01:15;1.48;;;0.60;;
32152;SDS011;18656;50.580;11.392;2022-09-09T08:03:44;3.15;;;0.70;;
32152;SDS011;18656;50.580;11.392;2022-09-09T08:06:12;4.03;;;0.90;;
32152;SDS011;18656;50.580;11.392;2022-09-09T08:08:40;4.18;;;0.70;;
32152;SDS011;18656;50.580;11.392;2022-09-09T08:11:13;2.60;;;0.77;;
32152;SDS011;18656;50.580;11.392;2022-09-09T08:13:43;6.38;;;0.68;;
32152;SDS011;18656;50.580;11.392;2022-09-09T08:16:15;3.10;;;0.77;;
32152;SDS011;18656;50.580;11.392;2022-09-09T08:18:43;4.13;;;0.70;;
32152;SDS011;18656;50.580;11.392;2022-09-09T08:21:12;2.40;;;0.70;;
32152;SDS011;18656;50.580;11.392;2022-09-09T08:23:43;2.90;;;0.70;;
32152;SDS011;18656;50.580;11.392;2022-09-09T08:26:12;3.05;;;0.82;;
32152;SDS011;18656;50.580;11.392;2022-09-09T08:28:41;1.58;;;0.73;;
32152;SDS011;18656;50.580;11.392;2022-09-09T08:31:10;4.55;;;1.10;;
32152;SDS011;18656;50.580;11.392;2022-09-09T08:33:38;2.35;;;0.65;;
32152;SDS011;18656;50.580;11.392;2022-09-09T08:36:09;1.65;;;0.73;;
32152;SDS011;18656;50.580;11.392;2022-09-09T08:38:37;2.97;;;0.50;;
32152;SDS011;18656;50.580;11.392;2022-09-09T08:43:50;1.98;;;0.50;;
32152;SDS011;18656;50.580;11.392;2022-09-09T08:46:26;2.22;;;0.65;;
32152;SDS011;18656;50.580;11.392;2022-09-09T08:48:56;4.78;;;0.90;;
32152;SDS011;18656;50.580;11.392;2022-09-09T08:51:26;2.03;;;0.60;;
32152;SDS011;18656;50.580;11.392;2022-09-09T08:53:54;3.42;;;0.85;;
32152;SDS011;18656;50.580;11.392;2022-09-09T08:56:25;3.25;;;0.73;;
32152;SDS011;18656;50.580;11.392;2022-09-09T08:58:53;4.25;;;0.88;;
32152;SDS011;18656;50.580;11.392;2022-09-09T09:06:50;4.22;;;0.90;;
32152;SDS011;18656;50.580;11.392;2022-09-09T09:09:28;7.95;;;0.75;;
32152;SDS011;18656;50.580;11.392;2022-09-09T09:11:58;5.03;;;1.00;;
32152;SDS011;18656;50.580;11.392;2022-09-09T09:14:33;2.00;;;0.70;;
32152;SDS011;18656;50.580;11.392;2022-09-09T09:17:02;7.38;;;0.80;;
32152;SDS011;18656;50.580;11.392;2022-09-09T09:19:31;2.72;;;0.70;;
32152;SDS011;18656;50.580;11.392;2022-09-09T09:22:02;3.65;;;0.70;;
32152;SDS011;18656;50.580;11.392;2022-09-09T09:29:31;5.40;;;0.88;;
32152;SDS011;18656;50.580;11.392;2022-09-09T09:32:07;2.10;;;1.00;;
32152;SDS011;18656;50.580;11.392;2022-09-09T09:34:39;5.00;;;0.93;;
32152;SDS011;18656;50.580;11.392;2022-09-09T09:37:12;5.95;;;0.73;;
32152;SDS011;18656;50.580;11.392;2022-09-09T09:39:47;1.20;;;0.60;;
32152;SDS011;18656;50.580;11.392;2022-09-09T09:42:31;4.05;;;1.00;;
32152;SDS011;18656;50.580;11.392;2022-09-09T09:45:12;1.83;;;0.70;;
32152;SDS011;18656;50.580;11.392;2022-09-09T09:47:41;2.13;;;0.70;;
32152;SDS011;18656;50.580;11.392;2022-09-09T09:50:18;3.38;;;0.95;;
32152;SDS011;18656;50.580;11.392;2022-09-09T09:52:53;4.75;;;1.15;;
32152;SDS011;18656;50.580;11.392;2022-09-09T09:55:21;3.13;;;0.50;;
32152;SDS011;18656;50.580;11.392;2022-09-09T09:57:50;2.65;;;0.70;;
32152;SDS011;18656;50.580;11.392;2022-09-09T10:00:19;3.05;;;0.70;;
32152;SDS011;18656;50.580;11.392;2022-09-09T10:02:47;1.63;;;0.55;;
32152;SDS011;18656;50.580;11.392;2022-09-09T10:05:27;3.58;;;0.90;;
32152;SDS011;18656;50.580;11.392;2022-09-09T10:08:05;5.80;;;0.70;;
32152;SDS011;18656;50.580;11.392;2022-09-09T10:10:35;4.18;;;0.90;;
32152;SDS011;18656;50.580;11.392;2022-09-09T10:13:08;5.30;;;1.10;;
32152;SDS011;18656;50.580;11.392;2022-09-09T10:15:43;3.20;;;0.80;;
32152;SDS011;18656;50.580;11.392;2022-09-09T10:23:54;6.63;;;0.80;;
32152;SDS011;18656;50.580;11.392;2022-09-09T10:26:35;4.55;;;0.68;;
32152;SDS011;18656;50.580;11.392;2022-09-09T10:34:11;3.63;;;0.57;;
32152;SDS011;18656;50.580;11.392;2022-09-09T10:36:43;2.78;;;0.90;;
32152;SDS011;18656;50.580;11.392;2022-09-09T10:41:54;2.13;;;0.70;;
32152;SDS011;18656;50.580;11.392;2022-09-09T10:44:35;2.88;;;0.60;;
32152;SDS011;18656;50.580;11.392;2022-09-09T10:47:10;3.85;;;0.80;;
32152;SDS011;18656;50.580;11.392;2022-09-09T10:49:46;2.63;;;0.75;;
32152;SDS011;18656;50.580;11.392;2022-09-09T10:52:23;1.58;;;0.57;;
32152;SDS011;18656;50.580;11.392;2022-09-09T10:54:56;5.28;;;0.95;;
32152;SDS011;18656;50.580;11.392;2022-09-09T10:57:39;2.22;;;0.60;;
32152;SDS011;18656;50.580;11.392;2022-09-09T11:02:55;2.63;;;0.80;;
32152;SDS011;18656;50.580;11.392;2022-09-09T11:05:27;1.45;;;0.60;;
32152;SDS011;18656;50.580;11.392;2022-09-09T11:08:01;1.52;;;0.70;;
32152;SDS011;18656;50.580;11.392;2022-09-09T11:13:02;1.85;;;0.65;;
32152;SDS011;18656;50.580;11.392;2022-09-09T11:15:39;3.30;;;0.88;;
32152;SDS011;18656;50.580;11.392;2022-09-09T11:18:08;1.25;;;0.50;;
32152;SDS011;18656;50.580;11.392;2022-09-09T11:20:38;5.28;;;1.23;;
32152;SDS011;18656;50.580;11.392;2022-09-09T11:23:09;8.40;;;1.52;;
32152;SDS011;18656;50.580;11.392;2022-09-09T11:25:40;8.00;;;1.42;;
32152;SDS011;18656;50.580;11.392;2022-09-09T11:36:16;3.85;;;1.33;;
32152;SDS011;18656;50.580;11.392;2022-09-09T11:38:51;3.35;;;0.40;;
32152;SDS011;18656;50.580;11.392;2022-09-09T11:41:19;8.07;;;1.00;;
32152;SDS011;18656;50.580;11.392;2022-09-09T11:43:48;3.08;;;0.50;;
32152;SDS011;18656;50.580;11.392;2022-09-09T11:46:18;5.18;;;0.60;;
32152;SDS011;18656;50.580;11.392;2022-09-09T11:49:00;2.55;;;0.50;;
32152;SDS011;18656;50.580;11.392;2022-09-09T11:51:28;1.90;;;0.93;;
32152;SDS011;18656;50.580;11.392;2022-09-09T11:54:00;2.97;;;0.95;;
32152;SDS011;18656;50.580;11.392;2022-09-09T11:56:32;3.42;;;0.85;;
32152;SDS011;18656;50.580;11.392;2022-09-09T11:59:04;2.40;;;0.50;;
32152;SDS011;18656;50.580;11.392;2022-09-09T12:06:42;4.15;;;0.85;;
32152;SDS011;18656;50.580;11.392;2022-09-09T12:09:28;3.42;;;0.65;;
32152;SDS011;18656;50.580;11.392;2022-09-09T12:12:07;4.60;;;0.80;;
32152;SDS011;18656;50.580;11.392;2022-09-09T12:14:42;3.85;;;0.70;;
32152;SDS011;18656;50.580;11.392;2022-09-09T12:19:43;1.65;;;0.47;;
32152;SDS011;18656;50.580;11.392;2022-09-09T12:22:27;3.17;;;0.60;;
32152;SDS011;18656;50.580;11.392;2022-09-09T12:27:40;7.50;;;0.90;;
32152;SDS011;18656;50.580;11.392;2022-09-09T12:30:12;4.35;;;0.88;;
32152;SDS011;18656;50.580;11.392;2022-09-09T12:32:41;3.47;;;0.65;;
32152;SDS011;18656;50.580;11.392;2022-09-09T12:35:20;3.70;;;0.43;;
32152;SDS011;18656;50.580;11.392;2022-09-09T12:40:20;1.80;;;0.50;;
32152;SDS011;18656;50.580;11.392;2022-09-09T12:42:48;1.80;;;0.60;;
32152;SDS011;18656;50.580;11.392;2022-09-09T12:45:22;5.05;;;0.75;;
32152;SDS011;18656;50.580;11.392;2022-09-09T12:48:00;3.53;;;0.60;;
32152;SDS011;18656;50.580;11.392;2022-09-09T12:50:29;1.40;;;0.70;;
32152;SDS011;18656;50.580;11.392;2022-09-09T12:52:58;1.92;;;0.57;;
32152;SDS011;18656;50.580;11.392;2022-09-09T12:55:29;3.25;;;0.68;;
32152;SDS011;18656;50.580;11.392;2022-09-09T12:57:57;3.65;;;0.70;;
32152;SDS011;18656;50.580;11.392;2022-09-09T13:00:26;1.08;;;0.68;;
32152;SDS011;18656;50.580;11.392;2022-09-09T13:02:55;2.05;;;0.60;;
32152;SDS011;18656;50.580;11.392;2022-09-09T13:05:23;3.97;;;0.50;;
32152;SDS011;18656;50.580;11.392;2022-09-09T13:07:51;4.53;;;0.80;;
32152;SDS011;18656;50.580;11.392;2022-09-09T13:10:22;4.13;;;0.60;;
32152;SDS011;18656;50.580;11.392;2022-09-09T13:13:13;11.23;;;1.10;;
32152;SDS011;18656;50.580;11.392;2022-09-09T13:15:47;4.55;;;0.50;;
32152;SDS011;18656;50.580;11.392;2022-09-09T13:18:17;4.78;;;0.77;;
32152;SDS011;18656;50.580;11.392;2022-09-09T13:20:46;5.97;;;1.42;;
32152;SDS011;18656;50.580;11.392;2022-09-09T13:23:13;3.83;;;0.60;;
32152;SDS011;18656;50.580;11.392;2022-09-09T13:25:42;6.60;;;0.77;;
32152;SDS011;18656;50.580;11.392;2022-09-09T13:28:20;2.97;;;0.90;;
32152;SDS011;18656;50.580;11.392;2022-09-09T13:30:55;3.08;;;0.70;;
32152;SDS011;18656;50.580;11.392;2022-09-09T13:33:29;9.77;;;1.08;;
32152;SDS011;18656;50.580;11.392;2022-09-09T13:35:58;3.67;;;1.17;;
32152;SDS011;18656;50.580;11.392;2022-09-09T13:38:27;2.63;;;0.60;;
32152;SDS011;18656;50.580;11.392;2022-09-09T13:40:58;7.55;;;0.75;;
32152;SDS011;18656;50.580;11.392;2022-09-09T13:43:28;1.52;;;0.75;;
32152;SDS011;18656;50.580;11.392;2022-09-09T13:45:56;2.35;;;0.40;;
32152;SDS011;18656;50.580;11.392;2022-09-09T13:48:24;4.30;;;0.80;;
32152;SDS011;18656;50.580;11.392;2022-09-09T13:50:59;4.65;;;0.75;;
32152;SDS011;18656;50.580;11.392;2022-09-09T13:53:26;4.63;;;1.05;;
32152;SDS011;18656;50.580;11.392;2022-09-09T13:55:54;4.78;;;0.88;;
32152;SDS011;18656;50.580;11.392;2022-09-09T13:58:22;8.20;;;0.63;;
32152;SDS011;18656;50.580;11.392;2022-09-09T14:00:52;4.43;;;0.35;;
32152;SDS011;18656;50.580;11.392;2022-09-09T14:03:19;2.17;;;0.50;;
32152;SDS011;18656;50.580;11.392;2022-09-09T14:05:47;1.27;;;0.38;;
32152;SDS011;18656;50.580;11.392;2022-09-09T14:08:20;3.15;;;0.70;;
32152;SDS011;18656;50.580;11.392;2022-09-09T14:10:48;4.85;;;0.88;;
32152;SDS011;18656;50.580;11.392;2022-09-09T14:13:15;2.05;;;0.50;;
32152;SDS011;18656;50.580;11.392;2022-09-09T14:15:42;1.38;;;0.70;;
32152;SDS011;18656;50.580;11.392;2022-09-09T14:18:11;0.40;;;0.30;;
32152;SDS011;18656;50.580;11.392;2022-09-09T14:20:39;0.90;;;0.57;;
32152;SDS011;18656;50.580;11.392;2022-09-09T14:23:08;2.17;;;0.40;;
32152;SDS011;18656;50.580;11.392;2022-09-09T14:25:38;3.13;;;0.60;;
32152;SDS011;18656;50.580;11.392;2022-09-09T14:28:07;2.47;;;0.45;;
32152;SDS011;18656;50.580;11.392;2022-09-09T14:30:34;1.67;;;0.60;;
32152;SDS011;18656;50.580;11.392;2022-09-09T14:33:01;3.67;;;0.60;;
32152;SDS011;18656;50.580;11.392;2022-09-09T14:35:29;2.42;;;0.40;;
32152;SDS011;18656;50.580;11.392;2022-09-09T14:37:56;1.52;;;0.30;;
32152;SDS011;18656;50.580;11.392;2022-09-09T14:40:23;2.05;;;0.28;;
32152;SDS011;18656;50.580;11.392;2022-09-09T14:42:50;3.10;;;0.30;;
32152;SDS011;18656;50.580;11.392;2022-09-09T14:45:22;0.63;;;0.43;;
32152;SDS011;18656;50.580;11.392;2022-09-09T14:47:51;2.70;;;0.40;;
32152;SDS011;18656;50.580;11.392;2022-09-09T14:50:18;1.13;;;0.40;;
32152;SDS011;18656;50.580;11.392;2022-09-09T14:52:46;1.55;;;0.40;;
32152;SDS011;18656;50.580;11.392;2022-09-09T14:55:13;1.75;;;0.45;;
32152;SDS011;18656;50.580;11.392;2022-09-09T14:57:41;2.05;;;0.40;;
32152;SDS011;18656;50.580;11.392;2022-09-09T15:00:09;1.65;;;0.50;;
32152;SDS011;18656;50.580;11.392;2022-09-09T15:02:37;0.70;;;0.20;;
32152;SDS011;18656;50.580;11.392;2022-09-09T15:05:05;0.63;;;0.30;;
32152;SDS011;18656;50.580;11.392;2022-09-09T15:07:32;0.85;;;0.20;;
32152;SDS011;18656;50.580;11.392;2022-09-09T15:10:00;1.50;;;0.32;;
32152;SDS011;18656;50.580;11.392;2022-09-09T15:12:27;1.33;;;0.25;;
32152;SDS011;18656;50.580;11.392;2022-09-09T15:14:54;1.63;;;0.30;;
32152;SDS011;18656;50.580;11.392;2022-09-09T15:17:21;0.98;;;0.47;;
32152;SDS011;18656;50.580;11.392;2022-09-09T15:19:50;1.10;;;0.32;;
32152;SDS011;18656;50.580;11.392;2022-09-09T15:22:18;1.17;;;0.45;;
32152;SDS011;18656;50.580;11.392;2022-09-09T15:24:45;2.88;;;0.35;;
32152;SDS011;18656;50.580;11.392;2022-09-09T15:27:13;0.80;;;0.30;;
32152;SDS011;18656;50.580;11.392;2022-09-09T15:29:41;1.60;;;0.52;;
32152;SDS011;18656;50.580;11.392;2022-09-09T15:32:08;1.58;;;0.55;;
32152;SDS011;18656;50.580;11.392;2022-09-09T15:34:35;1.48;;;0.60;;
32152;SDS011;18656;50.580;11.392;2022-09-09T15:37:02;1.33;;;0.43;;
32152;SDS011;18656;50.580;11.392;2022-09-09T15:39:29;1.40;;;0.40;;
32152;SDS011;18656;50.580;11.392;2022-09-09T15:44:37;1.48;;;0.65;;
32152;SDS011;18656;50.580;11.392;2022-09-09T15:47:05;1.50;;;0.25;;
32152;SDS011;18656;50.580;11.392;2022-09-09T15:49:32;1.88;;;0.60;;
32152;SDS011;18656;50.580;11.392;2022-09-09T15:52:00;2.22;;;0.50;;
32152;SDS011;18656;50.580;11.392;2022-09-09T15:54:36;3.05;;;0.85;;
32152;SDS011;18656;50.580;11.392;2022-09-09T15:57:10;1.90;;;0.30;;
32152;SDS011;18656;50.580;11.392;2022-09-09T15:59:38;1.30;;;0.30;;
32152;SDS011;18656;50.580;11.392;2022-09-09T16:02:06;2.33;;;0.40;;
32152;SDS011;18656;50.580;11.392;2022-09-09T16:04:33;2.88;;;0.38;;
32152;SDS011;18656;50.580;11.392;2022-09-09T16:07:02;2.05;;;0.50;;
32152;SDS011;18656;50.580;11.392;2022-09-09T16:09:30;1.67;;;0.40;;
32152;SDS011;18656;50.580;11.392;2022-09-09T16:11:58;5.32;;;0.80;;
32152;SDS011;18656;50.580;11.392;2022-09-09T16:14:27;4.03;;;0.80;;
32152;SDS011;18656;50.580;11.392;2022-09-09T16:16:54;1.70;;;0.47;;